Estación Meteorológica Peña el Pijo (Robertgarden) [ 02/03/23 04:52:33 CET ]

Fecha Hora Presion(HPa) Temp (°C) Humedad % Rocio (°C) Viento ( m/s) Direccion Lluvia 1Hora(mm) Lluvia 24H(mm) LLuvia Total(mm)
2012-May-18 01:01:13 1007.000 17.2 53 7.5         158.50
2012-May-18 02:01:15 1006.200 15.4 56 6.6         158.50
2012-May-18 03:03:19 1005.700 14.3 60 6.7         158.50
2012-May-18 04:01:12 1004.900 13.9 61 6.5         158.50
2012-May-18 05:01:13 1004.400 14.3 62 7.1         158.50
2012-May-18 06:01:13 1004.500 15.3 55 6.3         158.50
2012-May-18 07:01:13 1004.400 13.8 62 6.6         158.50
2012-May-18 08:01:14 1003.600 13.8 67 7.8         158.50
2012-May-18 09:01:17 1003.900 16.8 58 8.5         158.50
2012-May-18 10:01:12 1004.200 21.5 43 8.3         158.50
2012-May-18 11:01:17 1003.900 25.5 33 8.0 1.2 WSW     158.50
2012-May-18 12:01:16 1003.900 25.8 26 4.6 1.0 WSW     158.50
2012-May-18 13:01:19 1003.900 29.2 20 4.0 0.2 NNE     158.50
2012-May-18 14:01:17 1003.600 28.4 19 2.4 1.3 S     158.50
2012-May-18 15:01:13 1003.500 27.4 19 1.6         158.50
2012-May-18 16:01:18 1003.100 27.8 21 3.4         158.50
2012-May-18 17:01:12 1002.600 30.5 20 5.0         158.50
2012-May-18 18:01:18 1002.600 30.1 20 4.7 0.5 S     158.50
2012-May-18 19:01:16 1002.700 29.2 25 6.9         158.50
2012-May-18 20:01:16 1003.000 25.5 28 5.5         158.50
2012-May-18 21:01:14 1003.300 22.1 34 5.4         158.50
2012-May-18 22:01:17 1003.600 18.6 40 4.7         158.50
2012-May-18 23:01:18 1003.700 16.1 46 4.4         158.50

Temperatura Máxima:30°    Temperatura Mínima:13°
Presión Máxima:1007.000 Hpa    Presión Mínima:1002.600 Hpa


Volver